createdAt,value
2018-07-26T00:00:35.663Z,8.87
2018-07-26T00:03:08.603Z,8.70
2018-07-26T00:05:36.734Z,10.30
2018-07-26T00:10:38.486Z,9.23
2018-07-26T00:13:06.846Z,11.13
2018-07-26T00:15:35.261Z,10.73
2018-07-26T00:18:03.412Z,14.50
2018-07-26T00:20:31.566Z,11.67
2018-07-26T00:23:00.159Z,8.30
2018-07-26T00:25:28.307Z,9.10
2018-07-26T00:27:56.455Z,8.07
2018-07-26T00:30:24.884Z,8.67
2018-07-26T00:32:53.033Z,9.47
2018-07-26T00:35:26.156Z,9.00
2018-07-26T00:37:55.097Z,9.73
2018-07-26T00:40:28.190Z,10.93
2018-07-26T00:42:56.327Z,8.80
2018-07-26T00:45:31.819Z,11.83
2018-07-26T00:47:59.970Z,10.20
2018-07-26T00:50:36.534Z,10.13
2018-07-26T00:53:04.752Z,10.30
2018-07-26T00:55:36.866Z,11.03
2018-07-26T00:58:05.592Z,10.73
2018-07-26T01:00:46.500Z,10.80
2018-07-26T01:03:14.916Z,10.53
2018-07-26T01:05:43.039Z,11.33
2018-07-26T01:08:11.182Z,10.17
2018-07-26T01:10:51.880Z,11.60
2018-07-26T01:13:20.471Z,9.87
2018-07-26T01:15:48.964Z,11.10
2018-07-26T01:18:17.110Z,10.07
2018-07-26T01:20:58.246Z,9.27
2018-07-26T01:23:26.697Z,12.83
2018-07-26T01:25:54.858Z,10.13
2018-07-26T01:28:23.867Z,13.10
2018-07-26T01:30:54.970Z,15.10
2018-07-26T01:33:23.125Z,11.67
2018-07-26T01:35:53.434Z,13.90
2018-07-26T01:38:24.023Z,14.23
2018-07-26T01:40:52.168Z,11.70
2018-07-26T01:44:02.090Z,16.43
2018-07-26T01:46:30.825Z,15.87
2018-07-26T01:48:59.368Z,12.47
2018-07-26T01:51:30.099Z,12.63
2018-07-26T01:53:58.494Z,12.37
2018-07-26T01:56:26.646Z,15.90
2018-07-26T01:58:55.166Z,16.40
2018-07-26T02:01:23.815Z,14.53
2018-07-26T02:03:51.965Z,15.13
2018-07-26T02:06:20.150Z,16.63
2018-07-26T02:08:48.570Z,14.07
2018-07-26T02:11:16.795Z,15.73
2018-07-26T02:13:44.963Z,20.77
2018-07-26T02:16:20.531Z,17.10
2018-07-26T02:18:48.691Z,13.47
2018-07-26T02:21:20.864Z,17.40
2018-07-26T02:23:49.046Z,17.93
2018-07-26T02:26:18.015Z,16.50
2018-07-26T02:28:49.767Z,17.87
2018-07-26T02:31:17.912Z,17.87
2018-07-26T02:33:46.056Z,15.47
2018-07-26T02:36:14.447Z,19.50
2018-07-26T02:38:43.238Z,16.47
2018-07-26T02:41:11.403Z,15.10
2018-07-26T02:43:39.836Z,17.93
2018-07-26T02:46:07.988Z,13.07
2018-07-26T02:48:36.142Z,14.33
2018-07-26T02:51:04.800Z,12.83
2018-07-26T02:53:45.559Z,14.27
2018-07-26T02:56:13.927Z,13.80
2018-07-26T02:58:42.354Z,15.27
2018-07-26T03:01:10.504Z,13.30
2018-07-26T03:03:41.913Z,13.50
2018-07-26T03:06:10.363Z,13.13
2018-07-26T03:11:11.075Z,15.00
2018-07-26T03:13:39.211Z,14.40
2018-07-26T03:16:07.637Z,14.97
2018-07-26T03:18:36.585Z,15.83
2018-07-26T03:21:05.248Z,17.97
2018-07-26T03:23:33.382Z,15.97
2018-07-26T03:26:01.520Z,14.80
2018-07-26T03:28:30.298Z,14.47
2018-07-26T03:30:58.761Z,14.97
2018-07-26T03:33:26.935Z,15.53
2018-07-26T03:35:59.834Z,16.97
2018-07-26T03:38:28.358Z,15.67
2018-07-26T03:43:30.798Z,17.23
2018-07-26T03:45:59.357Z,16.43
2018-07-26T03:48:27.788Z,16.60
2018-07-26T03:50:56.602Z,15.57
2018-07-26T03:53:25.806Z,17.57
2018-07-26T03:55:54.173Z,15.83
2018-07-26T03:58:22.332Z,15.53
2018-07-26T04:00:50.819Z,15.13
2018-07-26T04:03:19.456Z,20.70
2018-07-26T04:05:47.677Z,16.87
2018-07-26T04:08:18.475Z,14.43
2018-07-26T04:10:46.646Z,15.33
2018-07-26T04:13:18.926Z,14.40
2018-07-26T04:15:47.342Z,16.33
2018-07-26T04:18:15.482Z,14.00
2018-07-26T04:20:43.620Z,22.13
2018-07-26T04:23:12.228Z,21.63
2018-07-26T04:25:40.531Z,19.93
2018-07-26T04:28:08.670Z,18.87
2018-07-26T04:30:37.533Z,21.93
2018-07-26T04:33:06.550Z,19.80
2018-07-26T04:35:34.758Z,19.77
2018-07-26T04:38:03.171Z,17.97
2018-07-26T04:40:35.372Z,19.60
2018-07-26T04:43:03.610Z,18.33
2018-07-26T04:45:35.754Z,17.70
2018-07-26T04:48:03.911Z,16.50
2018-07-26T04:50:39.627Z,18.47
2018-07-26T04:53:08.076Z,20.50
2018-07-26T04:55:41.518Z,20.60
2018-07-26T04:58:11.907Z,22.40
2018-07-26T05:00:54.552Z,19.27
2018-07-26T05:03:23.970Z,17.63
2018-07-26T05:05:52.259Z,20.77
2018-07-26T05:08:20.674Z,16.73
2018-07-26T05:10:49.832Z,17.67
2018-07-26T05:13:18.006Z,20.73
2018-07-26T05:15:50.320Z,18.30
2018-07-26T05:18:18.515Z,20.23
2018-07-26T05:20:46.666Z,25.43
2018-07-26T05:23:15.314Z,18.50
2018-07-26T05:25:43.463Z,19.97
2018-07-26T05:28:11.878Z,22.47
2018-07-26T05:30:40.386Z,17.27
2018-07-26T05:33:09.743Z,16.10
2018-07-26T05:35:37.919Z,17.20
2018-07-26T05:38:06.718Z,16.40
2018-07-26T05:40:34.873Z,17.43
2018-07-26T05:43:08.564Z,16.07
2018-07-26T05:45:37.145Z,15.80
2018-07-26T05:48:10.759Z,13.53
2018-07-26T05:50:38.927Z,14.90
2018-07-26T05:53:12.777Z,16.10
2018-07-26T05:55:40.950Z,15.17
2018-07-26T05:58:09.998Z,15.30
2018-07-26T06:00:43.374Z,16.90
2018-07-26T06:03:16.878Z,17.53
2018-07-26T06:05:45.038Z,14.90
2018-07-26T06:08:13.762Z,15.67
2018-07-26T06:10:41.983Z,16.50
2018-07-26T06:13:10.157Z,16.63
2018-07-26T06:15:38.582Z,15.50
2018-07-26T06:18:06.765Z,16.15
2018-07-26T06:20:34.999Z,15.55
2018-07-26T06:23:04.387Z,14.38
2018-07-26T06:25:32.539Z,12.80
2018-07-26T06:28:00.919Z,15.13
2018-07-26T06:30:31.555Z,15.05
2018-07-26T06:33:00.147Z,16.12
2018-07-26T06:35:42.734Z,18.73
2018-07-26T06:38:14.355Z,11.70
2018-07-26T06:40:43.430Z,11.48
2018-07-26T06:43:12.396Z,11.88
2018-07-26T06:45:41.500Z,12.50
2018-07-26T06:48:10.119Z,11.00
2018-07-26T06:50:41.254Z,10.03
2018-07-26T06:53:09.493Z,11.00
2018-07-26T06:55:44.210Z,11.12
2018-07-26T06:58:12.407Z,11.90
2018-07-26T07:04:14.759Z,9.73
2018-07-26T07:06:46.785Z,9.35
2018-07-26T07:09:16.306Z,10.98
2018-07-26T07:11:44.757Z,11.00
2018-07-26T07:14:12.921Z,16.07
2018-07-26T07:16:41.292Z,16.12
2018-07-26T07:19:10.185Z,17.52
2018-07-26T07:21:39.019Z,18.85
2018-07-26T07:24:07.966Z,14.80
2018-07-26T07:26:36.826Z,11.00
2018-07-26T07:29:05.000Z,14.00
2018-07-26T07:31:33.169Z,12.25
2018-07-26T07:34:06.086Z,10.75
2018-07-26T07:36:34.319Z,10.95
2018-07-26T07:39:02.558Z,11.35
2018-07-26T07:41:33.268Z,11.12
2018-07-26T07:44:02.912Z,12.88
2018-07-26T07:46:31.094Z,11.12
2018-07-26T07:48:59.839Z,12.37
2018-07-26T07:51:28.020Z,9.20
2018-07-26T07:53:56.484Z,13.43
2018-07-26T07:56:24.949Z,8.50
2018-07-26T07:58:54.398Z,12.60
2018-07-26T08:01:22.582Z,7.47
2018-07-26T08:03:51.207Z,9.08
2018-07-26T08:06:32.151Z,12.25
2018-07-26T08:09:00.960Z,12.18
2018-07-26T08:11:29.147Z,6.95
2018-07-26T08:14:05.476Z,8.15
2018-07-26T08:16:34.567Z,8.70
2018-07-26T08:19:02.698Z,7.85
2018-07-26T08:21:32.098Z,8.15
2018-07-26T08:24:01.860Z,8.10
2018-07-26T08:26:42.851Z,9.23
2018-07-26T08:29:11.549Z,9.40
2018-07-26T08:31:39.703Z,5.67
2018-07-26T08:34:08.152Z,7.87
2018-07-26T08:36:40.975Z,6.75
2018-07-26T08:39:11.728Z,5.45
2018-07-26T08:41:42.623Z,8.90
2018-07-26T08:44:11.146Z,8.25
2018-07-26T08:46:45.103Z,5.58
2018-07-26T08:49:14.806Z,5.70
2018-07-26T08:51:55.674Z,6.60
2018-07-26T08:54:24.313Z,5.25
2018-07-26T08:56:52.668Z,6.12
2018-07-26T08:59:20.912Z,5.55
2018-07-26T09:02:01.932Z,5.72
2018-07-26T09:04:31.578Z,6.58
2018-07-26T09:06:59.978Z,5.60
2018-07-26T09:09:28.504Z,5.42
2018-07-26T09:12:00.174Z,7.20
2018-07-26T09:14:28.343Z,8.50
2018-07-26T09:17:01.959Z,6.78
2018-07-26T09:19:30.410Z,6.45
2018-07-26T09:24:32.508Z,8.00
2018-07-26T09:27:00.675Z,7.05
2018-07-26T09:29:28.833Z,7.22
2018-07-26T09:31:58.468Z,6.70
2018-07-26T09:34:26.668Z,7.22
2018-07-26T09:36:55.079Z,7.20
2018-07-26T09:39:23.641Z,5.17
2018-07-26T09:41:52.802Z,6.22
2018-07-26T09:44:21.928Z,9.53
2018-07-26T09:46:50.575Z,6.35
2018-07-26T09:51:57.006Z,9.18
2018-07-26T09:54:26.162Z,7.22
2018-07-26T09:56:57.443Z,6.67
2018-07-26T09:59:25.659Z,8.88
2018-07-26T10:01:55.451Z,5.45
2018-07-26T10:04:27.650Z,5.53
2018-07-26T10:06:56.567Z,7.92
2018-07-26T10:09:32.601Z,5.08
2018-07-26T10:12:01.268Z,6.05
2018-07-26T10:14:34.406Z,5.50
2018-07-26T10:17:04.884Z,6.62
2018-07-26T10:19:36.172Z,5.67
2018-07-26T10:22:07.032Z,4.97
2018-07-26T10:24:38.318Z,6.67
2018-07-26T10:27:10.188Z,5.47
2018-07-26T10:29:39.079Z,6.72
2018-07-26T10:32:10.034Z,6.10
2018-07-26T10:34:50.925Z,4.17
2018-07-26T10:37:22.263Z,4.55
2018-07-26T10:39:50.453Z,5.67
2018-07-26T10:42:21.673Z,6.90
2018-07-26T10:44:50.316Z,5.42
2018-07-26T10:47:18.493Z,6.92
2018-07-26T10:49:59.692Z,4.25
2018-07-26T10:52:29.788Z,6.05
2018-07-26T10:54:58.054Z,6.22
2018-07-26T10:57:26.403Z,4.30
2018-07-26T10:59:56.119Z,4.75
2018-07-26T11:02:25.517Z,7.12
2018-07-26T11:04:59.815Z,8.15
2018-07-26T11:07:28.440Z,4.37
2018-07-26T11:10:02.201Z,4.22
2018-07-26T11:12:30.483Z,7.20
2018-07-26T11:15:11.162Z,4.35
2018-07-26T11:17:39.364Z,3.77
2018-07-26T11:20:08.425Z,4.40
2018-07-26T11:22:37.695Z,7.20
2018-07-26T11:25:10.350Z,3.85
2018-07-26T11:27:40.272Z,4.50
2018-07-26T11:30:16.090Z,4.72
2018-07-26T11:32:45.450Z,5.85
2018-07-26T11:35:16.996Z,4.65
2018-07-26T11:37:45.975Z,7.83
2018-07-26T11:40:19.902Z,4.08
2018-07-26T11:42:48.056Z,4.12
2018-07-26T11:45:20.128Z,4.40
2018-07-26T11:47:50.101Z,4.45
2018-07-26T11:50:31.179Z,6.53
2018-07-26T11:53:00.318Z,7.30
2018-07-26T11:55:28.658Z,7.03
2018-07-26T11:57:57.497Z,3.55
2018-07-26T12:00:27.945Z,4.12
2018-07-26T12:02:56.322Z,4.90
2018-07-26T12:05:30.101Z,5.85
2018-07-26T12:07:59.160Z,6.03
2018-07-26T12:10:32.155Z,7.65
2018-07-26T12:13:00.295Z,5.75
2018-07-26T12:15:33.605Z,4.03
2018-07-26T12:18:01.984Z,5.17
2018-07-26T12:20:34.482Z,7.80
2018-07-26T12:23:04.208Z,6.12
2018-07-26T12:25:32.544Z,5.78
2018-07-26T12:28:01.076Z,8.93
2018-07-26T12:30:30.172Z,5.22
2018-07-26T12:32:58.344Z,4.10
2018-07-26T12:35:26.572Z,6.50
2018-07-26T12:37:56.319Z,8.18
2018-07-26T12:40:24.548Z,3.35
2018-07-26T12:42:54.146Z,4.53
2018-07-26T12:45:22.677Z,6.58
2018-07-26T12:47:59.184Z,4.12
2018-07-26T12:50:28.100Z,4.10
2018-07-26T12:52:56.901Z,5.75
2018-07-26T12:55:26.173Z,3.58
2018-07-26T12:57:58.953Z,5.67
2018-07-26T13:00:28.344Z,5.67
2018-07-26T13:03:09.659Z,5.55
2018-07-26T13:05:39.053Z,3.95
2018-07-26T13:08:07.894Z,5.33
2018-07-26T13:10:36.194Z,6.00
2018-07-26T13:13:06.849Z,5.12
2018-07-26T13:15:35.310Z,4.97
2018-07-26T13:18:13.679Z,5.37
2018-07-26T13:20:42.791Z,5.25
2018-07-26T13:23:12.188Z,5.12
2018-07-26T13:25:41.135Z,3.60
2018-07-26T13:28:14.960Z,5.50
2018-07-26T13:30:45.628Z,5.53
2018-07-26T13:33:17.416Z,5.67
2018-07-26T13:35:48.152Z,8.10
2018-07-26T13:38:21.835Z,4.10
2018-07-26T13:40:49.996Z,3.47
2018-07-26T13:43:21.771Z,4.42
2018-07-26T13:45:52.098Z,4.42
2018-07-26T13:48:24.177Z,5.42
2018-07-26T13:50:52.355Z,4.37
2018-07-26T13:53:25.278Z,4.17
2018-07-26T13:55:54.887Z,5.12
2018-07-26T13:58:28.627Z,5.90
2018-07-26T14:01:00.102Z,5.85
2018-07-26T14:03:34.947Z,9.90
2018-07-26T14:06:03.239Z,3.83
2018-07-26T14:08:35.079Z,6.12
2018-07-26T14:11:04.245Z,4.62
2018-07-26T14:13:36.400Z,6.10
2018-07-26T14:16:05.812Z,4.80
2018-07-26T14:18:46.905Z,4.33
2018-07-26T14:21:15.550Z,4.05
2018-07-26T14:23:44.540Z,3.87
2018-07-26T14:26:13.262Z,3.90
2018-07-26T14:28:42.553Z,4.53
2018-07-26T14:31:10.801Z,4.25
2018-07-26T14:33:44.508Z,7.50
2018-07-26T14:36:15.174Z,5.08
2018-07-26T14:38:54.471Z,4.80
2018-07-26T14:41:22.903Z,6.83
2018-07-26T14:43:51.208Z,5.58
2018-07-26T14:46:19.609Z,5.25
2018-07-26T14:48:54.640Z,5.67
2018-07-26T14:51:23.162Z,6.15
2018-07-26T14:54:04.067Z,5.22
2018-07-26T14:56:33.773Z,4.90
2018-07-26T14:59:02.100Z,6.33
2018-07-26T15:01:31.378Z,8.78
2018-07-26T15:04:03.009Z,4.72
2018-07-26T15:06:31.352Z,4.15
2018-07-26T15:09:05.504Z,4.87
2018-07-26T15:11:34.515Z,5.97
2018-07-26T15:14:08.972Z,4.10
2018-07-26T15:16:37.151Z,3.67
2018-07-26T15:19:12.150Z,3.85
2018-07-26T15:21:41.966Z,5.40
2018-07-26T15:24:13.973Z,7.42
2018-07-26T15:26:43.002Z,4.53
2018-07-26T15:29:15.971Z,4.55
2018-07-26T15:31:44.603Z,6.50
2018-07-26T15:34:18.519Z,5.50
2018-07-26T15:36:46.721Z,11.78
2018-07-26T15:39:19.832Z,11.73
2018-07-26T15:41:48.315Z,10.45
2018-07-26T15:44:17.731Z,8.15
2018-07-26T15:46:49.604Z,11.55
2018-07-26T15:49:18.182Z,7.62
2018-07-26T15:51:46.567Z,11.18
2018-07-26T15:54:16.260Z,5.47
2018-07-26T15:56:45.953Z,6.37
2018-07-26T15:59:14.571Z,11.25
2018-07-26T16:01:42.750Z,5.22
2018-07-26T16:04:12.171Z,6.70
2018-07-26T16:06:41.220Z,5.65
2018-07-26T16:09:10.627Z,4.05
2018-07-26T16:11:40.350Z,5.53
2018-07-26T16:14:09.733Z,9.63
2018-07-26T16:16:40.178Z,4.83
2018-07-26T16:19:09.599Z,4.25
2018-07-26T16:21:45.562Z,6.80
2018-07-26T16:24:14.207Z,5.85
2018-07-26T16:26:44.311Z,6.45
2018-07-26T16:29:13.792Z,6.30
2018-07-26T16:31:49.206Z,4.28
2018-07-26T16:34:21.143Z,5.70
2018-07-26T16:36:54.673Z,4.80
2018-07-26T16:39:27.753Z,5.47
2018-07-26T16:41:59.243Z,6.28
2018-07-26T16:44:29.186Z,6.25
2018-07-26T16:46:59.277Z,7.30
2018-07-26T16:49:27.419Z,6.92
2018-07-26T16:51:59.378Z,8.13
2018-07-26T16:54:27.815Z,9.23
2018-07-26T16:57:00.962Z,12.95
2018-07-26T16:59:29.159Z,6.45
2018-07-26T17:04:31.964Z,7.75
2018-07-26T17:07:00.180Z,8.78
2018-07-26T17:09:29.425Z,5.40
2018-07-26T17:11:59.650Z,5.80
2018-07-26T17:14:27.966Z,4.50
2018-07-26T17:16:57.530Z,4.45
2018-07-26T17:19:26.168Z,8.05
2018-07-26T17:21:54.863Z,7.55
2018-07-26T17:24:24.159Z,8.13
2018-07-26T17:27:02.163Z,6.80
2018-07-26T17:29:30.752Z,3.87
2018-07-26T17:31:59.274Z,4.80
2018-07-26T17:34:28.792Z,4.97
2018-07-26T17:36:58.324Z,4.78
2018-07-26T17:39:28.220Z,3.77
2018-07-26T17:41:57.053Z,5.05
2018-07-26T17:44:26.499Z,6.40
2018-07-26T17:46:55.415Z,3.80
2018-07-26T17:49:33.180Z,4.05
2018-07-26T17:52:01.531Z,6.35
2018-07-26T17:54:33.079Z,6.47
2018-07-26T17:57:02.815Z,7.50
2018-07-26T17:59:35.095Z,7.42
2018-07-26T18:04:28.510Z,7.05
2018-07-26T18:06:56.931Z,6.67
2018-07-26T18:09:26.359Z,5.03
2018-07-26T18:11:55.150Z,10.98
2018-07-26T18:14:25.335Z,5.20
2018-07-26T18:16:57.175Z,5.70
2018-07-26T18:19:25.406Z,6.78
2018-07-26T18:21:54.842Z,3.98
2018-07-26T18:24:23.420Z,6.05
2018-07-26T18:26:51.586Z,5.50
2018-07-26T18:29:20.771Z,4.78
2018-07-26T18:31:50.665Z,6.97
2018-07-26T18:34:21.002Z,5.25
2018-07-26T18:36:53.205Z,4.85
2018-07-26T18:39:23.094Z,6.53
2018-07-26T18:41:58.186Z,8.08
2018-07-26T18:44:27.043Z,5.37
2018-07-26T18:46:59.439Z,8.30
2018-07-26T18:49:30.589Z,5.08
2018-07-26T18:52:02.283Z,5.55
2018-07-26T18:54:31.704Z,5.50
2018-07-26T18:57:04.267Z,6.22
2018-07-26T18:59:32.429Z,8.10
2018-07-26T19:04:33.661Z,6.83
2018-07-26T19:07:03.502Z,9.95
2018-07-26T19:09:32.204Z,12.20
2018-07-26T19:12:00.910Z,8.40
2018-07-26T19:14:32.280Z,13.13
2018-07-26T19:17:02.457Z,5.22
2018-07-26T19:19:31.534Z,5.58
2018-07-26T19:22:00.558Z,6.03
2018-07-26T19:24:29.123Z,4.97
2018-07-26T19:27:02.423Z,5.47
2018-07-26T19:29:32.167Z,8.25
2018-07-26T19:32:01.275Z,5.40
2018-07-26T19:34:30.179Z,6.08
2018-07-26T19:37:03.597Z,6.65
2018-07-26T19:39:32.267Z,7.10
2018-07-26T19:44:36.683Z,6.12
2018-07-26T19:47:06.171Z,11.40
2018-07-26T19:49:39.846Z,5.35
2018-07-26T19:52:09.527Z,9.18
2018-07-26T19:54:39.284Z,7.17
2018-07-26T19:57:10.311Z,10.43
2018-07-26T19:59:38.979Z,7.92
2018-07-26T20:02:08.704Z,11.68
2018-07-26T20:04:42.979Z,4.50
2018-07-26T20:07:14.425Z,6.87
2018-07-26T20:09:42.598Z,9.43
2018-07-26T20:12:12.483Z,10.28
2018-07-26T20:14:46.952Z,12.00
2018-07-26T20:17:15.174Z,8.15
2018-07-26T20:19:49.976Z,8.13
2018-07-26T20:22:19.443Z,7.28
2018-07-26T20:25:02.698Z,9.28
2018-07-26T20:27:32.471Z,7.70
2018-07-26T20:30:03.301Z,7.90
2018-07-26T20:32:35.530Z,8.43
2018-07-26T20:35:04.987Z,7.58
2018-07-26T20:37:37.391Z,6.78
2018-07-26T20:40:08.436Z,6.60
2018-07-26T20:42:37.667Z,6.67
2018-07-26T20:45:07.302Z,6.20
2018-07-26T20:47:36.364Z,4.62
2018-07-26T20:50:08.132Z,5.00
2018-07-26T20:52:39.166Z,8.03
2018-07-26T20:55:11.270Z,6.47
2018-07-26T20:57:39.979Z,5.00
2018-07-26T21:00:22.233Z,4.58
2018-07-26T21:02:50.411Z,5.55
2018-07-26T21:05:18.804Z,7.85
2018-07-26T21:07:47.623Z,8.03
2018-07-26T21:10:17.152Z,4.22
2018-07-26T21:12:49.459Z,8.05
2018-07-26T21:15:19.482Z,6.50
2018-07-26T21:17:48.267Z,7.33
2018-07-26T21:20:29.664Z,5.13
2018-07-26T21:22:59.234Z,10.25
2018-07-26T21:25:30.367Z,6.00
2018-07-26T21:28:01.042Z,6.30
2018-07-26T21:30:30.458Z,5.77
2018-07-26T21:32:58.618Z,5.70
2018-07-26T21:35:28.192Z,8.20
2018-07-26T21:38:08.042Z,6.23
2018-07-26T21:40:43.901Z,7.23
2018-07-26T21:43:18.416Z,5.77
2018-07-26T21:45:46.895Z,6.53
2018-07-26T21:48:15.390Z,6.97
2018-07-26T21:50:44.546Z,7.27
2018-07-26T21:53:12.883Z,9.60
2018-07-26T21:55:41.247Z,6.13
2018-07-26T21:58:10.747Z,5.60
2018-07-26T22:00:45.403Z,7.17
2018-07-26T22:03:17.075Z,4.33
2018-07-26T22:05:46.597Z,7.03
2018-07-26T22:08:15.271Z,5.37
2018-07-26T22:10:48.847Z,4.57
2018-07-26T22:13:17.300Z,4.40
2018-07-26T22:15:50.631Z,6.33
2018-07-26T22:18:25.347Z,5.77
2018-07-26T22:20:53.797Z,8.63
2018-07-26T22:23:23.382Z,6.50
2018-07-26T22:25:56.589Z,4.63
2018-07-26T22:28:25.432Z,6.10
2018-07-26T22:30:57.404Z,4.70
2018-07-26T22:33:26.511Z,8.00
2018-07-26T22:36:00.147Z,5.87
2018-07-26T22:38:28.288Z,5.20
2018-07-26T22:41:02.474Z,6.97
2018-07-26T22:43:31.756Z,6.13
2018-07-26T22:46:08.302Z,9.83
2018-07-26T22:48:37.473Z,5.23
2018-07-26T22:51:18.338Z,4.40
2018-07-26T22:53:46.486Z,4.97
2018-07-26T22:56:14.648Z,6.80
2018-07-26T22:58:43.709Z,8.07
2018-07-26T23:01:15.155Z,4.73
2018-07-26T23:03:46.688Z,4.73
2018-07-26T23:06:16.639Z,4.45
2018-07-26T23:08:44.784Z,6.37
2018-07-26T23:11:19.163Z,10.07
2018-07-26T23:13:47.972Z,8.23
2018-07-26T23:16:20.987Z,7.10
2018-07-26T23:18:49.731Z,4.90
2018-07-26T23:21:24.239Z,6.37
2018-07-26T23:23:52.642Z,5.67
2018-07-26T23:26:24.947Z,7.20
2018-07-26T23:28:53.186Z,7.47
2018-07-26T23:31:26.161Z,6.83
2018-07-26T23:33:54.347Z,5.47
2018-07-26T23:36:22.527Z,6.93
2018-07-26T23:38:51.327Z,6.60
2018-07-26T23:41:19.521Z,9.03
2018-07-26T23:43:47.884Z,7.17
2018-07-26T23:46:17.590Z,7.33
2018-07-26T23:48:46.163Z,6.73
2018-07-26T23:51:14.537Z,8.20
2018-07-26T23:53:45.136Z,8.13
2018-07-26T23:56:13.331Z,5.53
2018-07-26T23:58:41.613Z,6.43
